Terminal Aerodrome Forecast
Issued by NWS

Home | Current Version | Previous Version | Text Only | Print | Product List | Glossary On
Versions: 1 2 3 4 5 6 7 8 9 10 11 12 13 14 15
000
FTUS46 KSEW 171700
TAFCLM
TAF
KCLM 171721Z 1718/1818 VRB03KT P6SM SCT014 BKN070 BKN110
      TEMPO 1718/1722 BKN014 OVC070
     FM172200 VRB04KT P6SM VCSH BKN045 BKN070
     FM180700 24004KT P6SM BKN012 BKN040=

USA.gov is the U.S. government's official web portal to all federal, state and local government web resources and services.